ハルビン の空港の天気 - METARとTAF

ハルビン太平国際空港 ( ZYHB / HRB ) - 中国 黒竜江省ハルビン市
飛行場実況気象(Metar)
観測時間04/25 22:00 CST (04/25 14:00 UTC)
風向・風速南西 8m/s
視程10km以上
天気現象
なし
気温18℃
湿度22%
気圧1002hPa
METARZYHB 251400Z 22008MPS CAVOK 18/M04 Q1002 NOSIG
過去の天気等 Google飛行場航空写真 Wunderground天気予報

過去48時間のMETAR

飛行場予報(TAF)
発表時間: 4/25 17:12 CST (4/25 09:12 UTC)
予報対象時間: 25日20時 CST ~ 26日20時 CST
風向・風速西南西 6m/s 瞬間風速 13m/s
視程6,000m
少しの雲 雲底高度 910m
26日5時 CST ~ 26日7時 CST に徐々に
風向・風速北北西 9m/s 瞬間風速 16m/s
TAF ZYHB 250912Z 2512/2612 24006G13MPS 6000 FEW030 TX20/2512Z TN12/2521Z
BECMG 2521/2523 34009G16MPS